createdAt,value
2017-12-19T00:02:09.341Z,89.31
2017-12-19T00:04:36.652Z,89.47
2017-12-19T00:07:02.956Z,89.67
2017-12-19T00:09:29.243Z,89.45
2017-12-19T00:11:55.523Z,89.29
2017-12-19T00:14:21.739Z,89.03
2017-12-19T00:16:47.899Z,89.01
2017-12-19T00:19:14.128Z,89.07
2017-12-19T00:21:40.461Z,89.22
2017-12-19T00:24:06.984Z,89.23
2017-12-19T00:26:33.171Z,89.15
2017-12-19T00:28:59.367Z,88.54
2017-12-19T00:31:25.623Z,88.98
2017-12-19T00:33:51.857Z,88.56
2017-12-19T00:36:18.054Z,88.58
2017-12-19T00:38:45.017Z,88.87
2017-12-19T00:41:12.053Z,88.93
2017-12-19T00:43:38.602Z,88.64
2017-12-19T00:46:04.803Z,88.84
2017-12-19T00:48:31.015Z,88.96
2017-12-19T00:50:57.346Z,89.00
2017-12-19T00:53:23.595Z,89.47
2017-12-19T00:55:50.899Z,89.58
2017-12-19T00:58:17.066Z,89.51
2017-12-19T01:00:43.377Z,89.81
2017-12-19T01:03:09.832Z,89.39
2017-12-19T01:05:36.500Z,89.57
2017-12-19T01:08:02.680Z,89.99
2017-12-19T01:10:29.675Z,90.03
2017-12-19T01:12:55.974Z,90.00
2017-12-19T01:15:22.983Z,89.40
2017-12-19T01:17:49.154Z,89.33
2017-12-19T01:20:15.683Z,89.64
2017-12-19T01:22:42.014Z,89.22
2017-12-19T01:25:09.485Z,89.23
2017-12-19T01:27:35.776Z,88.98
2017-12-19T01:30:02.759Z,88.26
2017-12-19T01:32:29.027Z,87.63
2017-12-19T01:34:55.377Z,87.85
2017-12-19T01:37:21.553Z,87.97
2017-12-19T01:39:47.820Z,87.91
2017-12-19T01:42:14.060Z,88.32
2017-12-19T01:44:40.352Z,88.22
2017-12-19T01:47:06.986Z,88.33
2017-12-19T01:49:33.214Z,88.55
2017-12-19T01:51:59.407Z,88.74
2017-12-19T01:54:25.829Z,88.49
2017-12-19T01:56:52.006Z,89.08
2017-12-19T01:59:18.899Z,88.79
2017-12-19T02:01:45.138Z,88.76
2017-12-19T02:04:11.532Z,88.44
2017-12-19T02:06:38.206Z,87.81
2017-12-19T02:09:05.164Z,88.12
2017-12-19T02:11:32.145Z,88.28
2017-12-19T02:13:58.326Z,88.10
2017-12-19T02:16:24.535Z,88.34
2017-12-19T02:18:50.692Z,88.35
2017-12-19T02:21:16.924Z,88.74
2017-12-19T02:23:43.115Z,89.02
2017-12-19T02:26:09.697Z,89.11
2017-12-19T02:28:36.109Z,89.19
2017-12-19T02:31:02.392Z,89.03
2017-12-19T02:33:28.772Z,90.06
2017-12-19T02:35:55.132Z,90.22
2017-12-19T02:38:22.036Z,89.96
2017-12-19T02:40:48.288Z,89.91
2017-12-19T02:43:20.447Z,89.16
2017-12-19T02:45:49.411Z,89.67
2017-12-19T02:48:15.578Z,89.80
2017-12-19T02:50:42.672Z,88.50
2017-12-19T02:53:09.063Z,88.23
2017-12-19T02:55:35.311Z,88.79
2017-12-19T02:58:01.581Z,89.29
2017-12-19T03:00:27.844Z,88.91
2017-12-19T03:02:54.084Z,89.01
2017-12-19T03:05:20.221Z,88.86
2017-12-19T03:07:46.408Z,88.94
2017-12-19T03:10:12.648Z,89.17
2017-12-19T03:12:39.150Z,89.39
2017-12-19T03:15:07.655Z,88.99
2017-12-19T03:17:33.901Z,89.46
2017-12-19T03:20:00.032Z,88.94
2017-12-19T03:22:26.328Z,88.91
2017-12-19T03:24:52.485Z,89.43
2017-12-19T03:27:18.674Z,88.87
2017-12-19T03:29:44.832Z,89.12
2017-12-19T03:32:11.121Z,89.39
2017-12-19T03:34:37.631Z,89.75
2017-12-19T03:37:03.846Z,89.13
2017-12-19T03:39:29.977Z,88.75
2017-12-19T03:41:56.320Z,89.03
2017-12-19T03:44:22.511Z,89.68
2017-12-19T03:46:48.679Z,90.01
2017-12-19T03:49:14.854Z,90.23
2017-12-19T03:51:41.157Z,89.96
2017-12-19T03:54:07.568Z,89.86
2017-12-19T03:56:33.714Z,90.10
2017-12-19T03:58:59.897Z,90.24
2017-12-19T04:01:26.310Z,90.81
2017-12-19T04:03:52.559Z,90.87
2017-12-19T04:06:18.740Z,91.23
2017-12-19T04:08:44.927Z,90.89
2017-12-19T04:11:11.227Z,90.50
2017-12-19T04:13:37.908Z,90.80
2017-12-19T04:16:04.083Z,89.67
2017-12-19T04:18:30.270Z,90.68
2017-12-19T04:20:57.349Z,90.40
2017-12-19T04:23:24.702Z,90.64
2017-12-19T04:25:50.903Z,90.67
2017-12-19T04:28:17.116Z,90.95
2017-12-19T04:30:43.319Z,91.21
2017-12-19T04:33:11.129Z,90.52
2017-12-19T04:35:37.794Z,90.65
2017-12-19T04:38:04.039Z,90.54
2017-12-19T04:40:30.196Z,91.13
2017-12-19T04:42:56.835Z,91.41
2017-12-19T04:45:23.015Z,91.41
2017-12-19T04:47:49.922Z,90.86
2017-12-19T04:50:16.151Z,90.99
2017-12-19T04:52:42.605Z,91.06
2017-12-19T04:55:09.137Z,91.16
2017-12-19T04:57:35.315Z,91.18
2017-12-19T05:00:01.531Z,90.96
2017-12-19T05:02:27.799Z,90.75
2017-12-19T05:04:53.986Z,90.51
2017-12-19T05:07:20.162Z,91.08
2017-12-19T05:09:46.396Z,91.07
2017-12-19T05:12:12.612Z,91.23
2017-12-19T05:14:39.639Z,91.11
2017-12-19T05:17:05.893Z,91.25
2017-12-19T05:19:32.108Z,91.40
2017-12-19T05:21:59.033Z,91.07
2017-12-19T05:24:25.381Z,91.27
2017-12-19T05:26:51.547Z,91.33
2017-12-19T05:29:17.736Z,91.43
2017-12-19T05:31:43.902Z,91.62
2017-12-19T05:34:10.245Z,91.48
2017-12-19T05:36:36.668Z,91.09
2017-12-19T05:39:02.927Z,90.46
2017-12-19T05:41:29.227Z,90.90
2017-12-19T05:43:56.201Z,91.04
2017-12-19T05:46:22.406Z,91.24
2017-12-19T05:48:48.578Z,91.10
2017-12-19T05:51:15.512Z,91.44
2017-12-19T05:53:41.768Z,91.13
2017-12-19T05:56:08.916Z,91.18
2017-12-19T05:58:36.195Z,91.03
2017-12-19T06:01:03.208Z,91.45
2017-12-19T06:03:29.484Z,91.58
2017-12-19T06:05:55.776Z,91.43
2017-12-19T06:08:21.911Z,91.02
2017-12-19T06:10:48.173Z,91.14
2017-12-19T06:13:14.527Z,91.06
2017-12-19T06:15:40.819Z,91.24
2017-12-19T06:18:07.265Z,91.24
2017-12-19T06:20:33.546Z,90.77
2017-12-19T06:22:59.768Z,90.69
2017-12-19T06:25:26.165Z,90.56
2017-12-19T06:27:53.084Z,90.73
2017-12-19T06:30:19.318Z,90.86
2017-12-19T06:32:46.272Z,90.71
2017-12-19T06:35:13.188Z,90.55
2017-12-19T06:37:39.612Z,90.56
2017-12-19T06:40:06.092Z,90.39
2017-12-19T06:42:34.375Z,90.34
2017-12-19T06:45:00.576Z,90.39
2017-12-19T06:47:27.572Z,90.41
2017-12-19T06:49:54.526Z,90.34
2017-12-19T06:52:21.471Z,90.47
2017-12-19T06:54:47.725Z,90.65
2017-12-19T06:57:14.699Z,94.47
2017-12-19T06:59:41.695Z,87.37
2017-12-19T07:02:08.114Z,88.56
2017-12-19T07:04:34.304Z,89.62
2017-12-19T07:07:00.537Z,89.77
2017-12-19T07:09:26.787Z,89.79
2017-12-19T07:11:52.977Z,89.97
2017-12-19T07:14:19.169Z,89.95
2017-12-19T07:16:45.385Z,89.41
2017-12-19T07:19:11.583Z,89.66
2017-12-19T07:21:38.699Z,89.81
2017-12-19T07:24:04.873Z,90.18
2017-12-19T07:26:31.815Z,90.02
2017-12-19T07:28:58.013Z,89.77
2017-12-19T07:31:24.184Z,89.81
2017-12-19T07:33:50.351Z,89.69
2017-12-19T07:36:17.288Z,89.74
2017-12-19T07:38:43.429Z,90.07
2017-12-19T07:41:09.780Z,90.38
2017-12-19T07:43:37.528Z,89.86
2017-12-19T07:46:03.666Z,89.45
2017-12-19T07:48:29.888Z,89.59
2017-12-19T07:50:56.099Z,89.83
2017-12-19T07:53:22.295Z,89.88
2017-12-19T07:55:48.444Z,89.77
2017-12-19T07:58:14.679Z,89.42
2017-12-19T08:00:41.009Z,89.29
2017-12-19T08:03:07.394Z,89.62
2017-12-19T08:05:34.271Z,89.11
2017-12-19T08:08:00.503Z,89.22
2017-12-19T08:10:26.780Z,89.31
2017-12-19T08:12:52.976Z,89.09
2017-12-19T08:15:19.846Z,89.25
2017-12-19T08:17:46.770Z,89.25
2017-12-19T08:20:12.940Z,89.09
2017-12-19T08:22:39.947Z,88.85
2017-12-19T08:25:06.384Z,88.48
2017-12-19T08:27:32.571Z,88.36
2017-12-19T08:29:58.727Z,88.10
2017-12-19T08:32:25.751Z,88.51
2017-12-19T08:34:51.920Z,88.15
2017-12-19T08:37:18.854Z,88.07
2017-12-19T08:39:45.008Z,87.90
2017-12-19T08:42:11.197Z,87.90
2017-12-19T08:44:37.507Z,87.65
2017-12-19T08:47:03.693Z,87.00
2017-12-19T08:49:29.923Z,86.50
2017-12-19T08:51:56.192Z,87.42
2017-12-19T08:54:22.429Z,86.83
2017-12-19T08:56:48.576Z,86.90
2017-12-19T08:59:14.755Z,87.14
2017-12-19T09:01:41.032Z,86.58
2017-12-19T09:04:07.472Z,86.61
2017-12-19T09:06:33.647Z,86.63
2017-12-19T09:08:59.836Z,86.54
2017-12-19T09:11:26.097Z,86.25
2017-12-19T09:13:52.298Z,85.73
2017-12-19T09:16:19.188Z,85.88
2017-12-19T09:18:45.363Z,85.21
2017-12-19T09:21:11.589Z,85.00
2017-12-19T09:23:37.961Z,85.80
2017-12-19T09:26:04.852Z,85.92
2017-12-19T09:28:31.179Z,84.57
2017-12-19T09:30:58.103Z,84.61
2017-12-19T09:33:24.298Z,84.75
2017-12-19T09:35:50.451Z,84.75
2017-12-19T09:38:16.762Z,84.83
2017-12-19T09:40:43.019Z,84.87
2017-12-19T09:43:09.336Z,84.05
2017-12-19T09:45:35.585Z,84.29
2017-12-19T09:48:01.787Z,84.63
2017-12-19T09:50:28.033Z,84.57
2017-12-19T09:52:54.233Z,82.93
2017-12-19T09:55:20.524Z,83.71
2017-12-19T09:57:46.680Z,82.90
2017-12-19T10:00:13.612Z,83.73
2017-12-19T10:02:39.909Z,83.83
2017-12-19T10:05:07.086Z,80.19
2017-12-19T10:07:33.324Z,69.21
2017-12-19T10:09:59.541Z,77.19
2017-12-19T10:12:25.738Z,80.79
2017-12-19T10:14:51.921Z,80.73
2017-12-19T10:17:18.068Z,81.90
2017-12-19T10:19:44.246Z,81.13
2017-12-19T10:22:10.449Z,81.78
2017-12-19T10:24:36.758Z,82.01
2017-12-19T10:27:03.003Z,81.47
2017-12-19T10:29:29.955Z,81.38
2017-12-19T10:31:56.244Z,81.12
2017-12-19T10:34:22.384Z,81.20
2017-12-19T10:36:48.600Z,81.24
2017-12-19T10:39:15.480Z,78.29
2017-12-19T10:41:41.754Z,78.79
2017-12-19T10:44:09.516Z,80.04
2017-12-19T10:46:35.888Z,79.07
2017-12-19T10:49:02.044Z,80.55
2017-12-19T10:51:28.967Z,80.95
2017-12-19T10:53:55.209Z,80.48
2017-12-19T10:56:21.380Z,79.30
2017-12-19T10:58:47.535Z,78.78
2017-12-19T11:01:14.523Z,80.92
2017-12-19T11:03:40.719Z,81.96
2017-12-19T11:06:07.764Z,79.63
2017-12-19T11:08:34.665Z,81.28
2017-12-19T11:11:00.857Z,81.00
2017-12-19T11:13:27.784Z,81.22
2017-12-19T11:15:54.003Z,80.00
2017-12-19T11:18:20.129Z,80.72
2017-12-19T11:20:47.083Z,81.87
2017-12-19T11:23:15.026Z,83.99
2017-12-19T11:25:41.295Z,80.19
2017-12-19T11:28:08.417Z,79.89
2017-12-19T11:30:34.592Z,80.76
2017-12-19T11:33:00.740Z,82.33
2017-12-19T11:35:27.843Z,80.21
2017-12-19T11:37:54.048Z,87.08
2017-12-19T11:40:20.999Z,76.79
2017-12-19T11:42:47.941Z,80.18
2017-12-19T11:45:14.091Z,81.64
2017-12-19T11:47:41.164Z,81.86
2017-12-19T11:50:07.502Z,80.46
2017-12-19T11:52:33.750Z,78.66
2017-12-19T11:55:00.653Z,80.36
2017-12-19T11:57:26.943Z,79.55
2017-12-19T11:59:53.847Z,79.88
2017-12-19T12:02:20.149Z,81.15
2017-12-19T12:04:47.055Z,81.54
2017-12-19T12:07:13.263Z,81.58
2017-12-19T12:09:39.575Z,82.44
2017-12-19T12:12:06.699Z,82.88
2017-12-19T12:14:32.895Z,79.45
2017-12-19T12:16:59.152Z,78.68
2017-12-19T12:19:25.369Z,79.74
2017-12-19T12:21:51.598Z,78.76
2017-12-19T12:24:18.560Z,79.53
2017-12-19T12:26:45.568Z,80.84
2017-12-19T12:29:11.856Z,80.97
2017-12-19T12:31:39.268Z,81.01
2017-12-19T12:34:05.442Z,81.60
2017-12-19T12:36:31.692Z,82.21
2017-12-19T12:38:57.883Z,82.12
2017-12-19T12:41:24.039Z,82.47
2017-12-19T12:43:50.227Z,81.22
2017-12-19T12:46:17.139Z,81.08
2017-12-19T12:48:43.337Z,81.46
2017-12-19T12:51:09.601Z,81.83
2017-12-19T12:53:35.834Z,81.06
2017-12-19T12:56:02.003Z,79.93
2017-12-19T12:58:28.191Z,81.90
2017-12-19T13:00:55.091Z,81.96
2017-12-19T13:03:21.301Z,81.58
2017-12-19T13:05:47.443Z,82.25
2017-12-19T13:08:13.671Z,81.10
2017-12-19T13:10:39.962Z,82.15
2017-12-19T13:13:06.476Z,82.68
2017-12-19T13:15:32.740Z,82.64
2017-12-19T13:17:58.937Z,81.12
2017-12-19T13:20:25.922Z,81.72
2017-12-19T13:22:52.262Z,81.85
2017-12-19T13:25:18.387Z,82.30
2017-12-19T13:27:45.298Z,82.19
2017-12-19T13:30:11.567Z,82.73
2017-12-19T13:32:37.862Z,82.80
2017-12-19T13:35:04.068Z,82.49
2017-12-19T13:37:31.028Z,82.81
2017-12-19T13:39:57.336Z,82.60
2017-12-19T13:42:23.475Z,82.24
2017-12-19T13:44:49.652Z,82.11
2017-12-19T13:47:15.844Z,83.11
2017-12-19T13:49:42.155Z,82.90
2017-12-19T13:52:08.405Z,81.72
2017-12-19T13:54:34.635Z,81.94
2017-12-19T13:57:00.778Z,82.75
2017-12-19T13:59:27.015Z,82.92
2017-12-19T14:01:53.943Z,83.22
2017-12-19T14:04:20.864Z,82.78
2017-12-19T14:06:47.007Z,82.69
2017-12-19T14:09:13.292Z,82.99
2017-12-19T14:11:39.765Z,83.15
2017-12-19T14:14:05.957Z,83.31
2017-12-19T14:16:32.157Z,82.96
2017-12-19T14:18:58.342Z,83.04
2017-12-19T14:21:24.615Z,83.08
2017-12-19T14:23:50.776Z,83.36
2017-12-19T14:26:16.963Z,82.86
2017-12-19T14:28:43.095Z,82.41
2017-12-19T14:31:09.395Z,82.31
2017-12-19T14:33:35.635Z,82.65
2017-12-19T14:36:02.588Z,83.15
2017-12-19T14:38:28.742Z,84.29
2017-12-19T14:40:54.977Z,83.41
2017-12-19T14:43:21.136Z,83.67
2017-12-19T14:45:47.312Z,82.69
2017-12-19T14:48:14.258Z,82.98
2017-12-19T14:50:41.263Z,83.37
2017-12-19T14:53:07.621Z,83.66
2017-12-19T14:55:33.821Z,83.41
2017-12-19T14:57:59.980Z,83.87
2017-12-19T15:00:26.271Z,84.36
2017-12-19T15:02:52.499Z,83.96
2017-12-19T15:05:18.751Z,83.98
2017-12-19T15:07:44.958Z,84.53
2017-12-19T15:10:11.916Z,83.70
2017-12-19T15:12:38.242Z,84.28
2017-12-19T15:15:04.415Z,84.30
2017-12-19T15:17:30.627Z,84.79
2017-12-19T15:19:56.858Z,84.18
2017-12-19T15:22:23.127Z,83.09
2017-12-19T15:24:49.288Z,82.78
2017-12-19T15:27:15.473Z,83.09
2017-12-19T15:29:41.825Z,83.84
2017-12-19T15:32:08.206Z,84.14
2017-12-19T15:34:34.426Z,84.49
2017-12-19T15:37:00.638Z,84.55
2017-12-19T15:39:26.928Z,85.23
2017-12-19T15:41:53.112Z,85.27
2017-12-19T15:44:20.012Z,84.88
2017-12-19T15:46:46.216Z,85.76
2017-12-19T15:49:12.440Z,85.44
2017-12-19T15:51:39.502Z,85.05
2017-12-19T15:54:05.718Z,85.08
2017-12-19T15:56:32.646Z,85.70
2017-12-19T15:58:58.985Z,85.60
2017-12-19T16:01:25.191Z,85.75
2017-12-19T16:03:52.476Z,85.35
2017-12-19T16:06:18.600Z,85.01
2017-12-19T16:08:45.808Z,85.12
2017-12-19T16:11:12.131Z,84.80
2017-12-19T16:13:38.725Z,84.66
2017-12-19T16:16:05.021Z,84.86
2017-12-19T16:18:31.135Z,84.65
2017-12-19T16:20:57.361Z,84.81
2017-12-19T16:23:23.521Z,84.85
2017-12-19T16:25:50.398Z,85.46
2017-12-19T16:28:16.629Z,85.50
2017-12-19T16:30:42.968Z,85.31
2017-12-19T16:33:09.487Z,85.14
2017-12-19T16:35:35.690Z,84.67
2017-12-19T16:38:02.723Z,84.97
2017-12-19T16:40:28.891Z,84.48
2017-12-19T16:42:55.054Z,85.16
2017-12-19T16:45:21.255Z,85.04
2017-12-19T16:47:47.438Z,85.51
2017-12-19T16:50:13.619Z,85.54
2017-12-19T16:52:40.016Z,85.71
2017-12-19T16:55:06.500Z,85.68
2017-12-19T16:57:32.719Z,85.13
2017-12-19T16:59:59.866Z,85.84
2017-12-19T17:02:26.321Z,85.72
2017-12-19T17:04:52.550Z,85.35
2017-12-19T17:07:18.699Z,85.63
2017-12-19T17:09:44.905Z,85.50
2017-12-19T17:12:11.236Z,85.22
2017-12-19T17:14:37.897Z,85.32
2017-12-19T17:17:04.839Z,84.86
2017-12-19T17:19:31.050Z,84.71
2017-12-19T17:21:58.065Z,84.65
2017-12-19T17:24:24.275Z,84.62
2017-12-19T17:26:50.745Z,84.39
2017-12-19T17:29:16.903Z,84.25
2017-12-19T17:31:43.128Z,83.92
2017-12-19T17:34:10.130Z,83.86
2017-12-19T17:36:37.243Z,84.02
2017-12-19T17:39:03.551Z,83.71
2017-12-19T17:41:29.754Z,83.94
2017-12-19T17:43:56.084Z,83.46
2017-12-19T17:46:23.041Z,84.17
2017-12-19T17:48:49.243Z,84.67
2017-12-19T17:51:15.440Z,83.84
2017-12-19T17:53:41.708Z,83.98
2017-12-19T17:56:08.996Z,84.30
2017-12-19T17:58:35.209Z,84.62
2017-12-19T18:01:02.217Z,84.76
2017-12-19T18:03:28.485Z,84.68
2017-12-19T18:05:54.779Z,85.10
2017-12-19T18:08:20.983Z,84.18
2017-12-19T18:10:47.957Z,83.79
2017-12-19T18:13:14.940Z,84.19
2017-12-19T18:15:41.233Z,84.55
2017-12-19T18:18:07.451Z,84.61
2017-12-19T18:20:33.623Z,84.62
2017-12-19T18:23:01.623Z,83.71
2017-12-19T18:25:28.902Z,83.39
2017-12-19T18:27:55.179Z,82.88
2017-12-19T18:30:21.371Z,82.89
2017-12-19T18:32:48.275Z,83.34
2017-12-19T18:35:14.428Z,83.18
2017-12-19T18:37:40.750Z,83.59
2017-12-19T18:40:06.993Z,83.38
2017-12-19T18:42:33.997Z,83.55
2017-12-19T18:45:01.677Z,83.53
2017-12-19T18:47:27.929Z,83.55
2017-12-19T18:49:54.126Z,83.74
2017-12-19T18:52:20.346Z,83.80
2017-12-19T18:54:46.569Z,83.89
2017-12-19T18:57:12.822Z,84.05
2017-12-19T18:59:39.149Z,83.91
2017-12-19T19:02:05.442Z,84.25
2017-12-19T19:04:32.370Z,84.51
2017-12-19T19:06:58.618Z,84.29
2017-12-19T19:09:24.863Z,84.19
2017-12-19T19:11:51.043Z,84.42
2017-12-19T19:14:17.972Z,84.24
2017-12-19T19:16:44.356Z,84.19
2017-12-19T19:19:11.432Z,83.59
2017-12-19T19:21:37.728Z,83.54
2017-12-19T19:24:04.723Z,83.28
2017-12-19T19:26:30.946Z,83.77
2017-12-19T19:28:58.014Z,83.09
2017-12-19T19:31:24.184Z,83.22
2017-12-19T19:33:50.430Z,83.41
2017-12-19T19:36:16.620Z,83.59
2017-12-19T19:38:43.667Z,82.43
2017-12-19T19:41:10.704Z,82.45
2017-12-19T19:43:37.051Z,82.94
2017-12-19T19:46:03.215Z,82.92
2017-12-19T19:48:29.460Z,83.11
2017-12-19T19:50:55.647Z,83.31
2017-12-19T19:53:21.841Z,83.03
2017-12-19T19:55:48.026Z,83.91
2017-12-19T19:58:14.286Z,84.36
2017-12-19T20:00:40.563Z,84.84
2017-12-19T20:03:06.960Z,85.32
2017-12-19T20:05:33.946Z,86.12
2017-12-19T20:08:00.187Z,86.20
2017-12-19T20:10:26.553Z,86.89
2017-12-19T20:12:53.619Z,87.03
2017-12-19T20:15:20.611Z,87.87
2017-12-19T20:17:46.905Z,88.10
2017-12-19T20:20:13.230Z,88.81
2017-12-19T20:22:39.511Z,89.02
2017-12-19T20:25:05.842Z,89.09
2017-12-19T20:27:32.792Z,89.23
2017-12-19T20:29:59.126Z,89.81
2017-12-19T20:32:25.468Z,89.92
2017-12-19T20:34:51.790Z,89.81
2017-12-19T20:37:18.011Z,90.40
2017-12-19T20:39:44.330Z,90.51
2017-12-19T20:42:11.296Z,90.21
2017-12-19T20:44:38.317Z,90.30
2017-12-19T20:47:04.570Z,90.46
2017-12-19T20:49:31.688Z,90.74
2017-12-19T20:51:58.778Z,90.69
2017-12-19T20:54:25.108Z,90.43
2017-12-19T20:56:51.323Z,90.50
2017-12-19T20:59:17.623Z,90.53
2017-12-19T21:01:43.869Z,90.95
2017-12-19T21:04:10.900Z,91.37
2017-12-19T21:06:37.279Z,91.35
2017-12-19T21:09:04.327Z,91.08
2017-12-19T21:11:30.610Z,90.83
2017-12-19T21:13:56.876Z,90.76
2017-12-19T21:16:23.938Z,91.30
2017-12-19T21:18:50.174Z,91.41
2017-12-19T21:21:16.431Z,91.47
2017-12-19T21:23:42.769Z,91.15
2017-12-19T21:26:09.191Z,91.30
2017-12-19T21:28:35.484Z,91.24
2017-12-19T21:31:02.483Z,91.15
2017-12-19T21:33:29.066Z,91.10
2017-12-19T21:35:55.582Z,91.13
2017-12-19T21:38:21.945Z,91.24
2017-12-19T21:40:48.969Z,91.52
2017-12-19T21:43:15.164Z,91.38
2017-12-19T21:45:41.622Z,91.27
2017-12-19T21:48:08.082Z,91.44
2017-12-19T21:50:35.054Z,91.02
2017-12-19T21:53:01.247Z,90.77
2017-12-19T21:55:27.657Z,91.19
2017-12-19T21:57:53.845Z,91.10
2017-12-19T22:00:20.234Z,90.94
2017-12-19T22:02:46.447Z,90.99
2017-12-19T22:05:13.419Z,90.77
2017-12-19T22:07:40.479Z,90.84
2017-12-19T22:10:06.974Z,90.83
2017-12-19T22:12:33.262Z,90.35
2017-12-19T22:15:00.378Z,90.43
2017-12-19T22:17:26.818Z,90.52
2017-12-19T22:19:53.116Z,90.37
2017-12-19T22:22:20.334Z,90.15
2017-12-19T22:24:46.544Z,90.33
2017-12-19T22:27:13.036Z,90.35
2017-12-19T22:29:39.505Z,89.88
2017-12-19T22:32:06.730Z,90.04
2017-12-19T22:34:32.937Z,90.35
2017-12-19T22:36:59.291Z,90.59
2017-12-19T22:39:25.692Z,90.26
2017-12-19T22:41:52.037Z,90.40
2017-12-19T22:44:18.449Z,90.58
2017-12-19T22:46:44.750Z,90.30
2017-12-19T22:49:11.828Z,90.24
2017-12-19T22:51:38.099Z,90.10
2017-12-19T22:54:04.375Z,89.93
2017-12-19T22:56:31.565Z,90.02
2017-12-19T22:58:57.957Z,89.65
2017-12-19T23:01:25.042Z,90.04
2017-12-19T23:03:52.004Z,89.67
2017-12-19T23:06:19.037Z,89.89
2017-12-19T23:08:45.337Z,89.91
2017-12-19T23:11:11.691Z,90.29
2017-12-19T23:13:38.424Z,89.63
2017-12-19T23:16:04.622Z,90.29
2017-12-19T23:18:30.954Z,89.84
2017-12-19T23:20:57.359Z,89.71
2017-12-19T23:23:23.571Z,90.17
2017-12-19T23:25:49.791Z,90.39
2017-12-19T23:28:16.073Z,90.34
2017-12-19T23:30:42.443Z,89.99
2017-12-19T23:33:09.586Z,89.54
2017-12-19T23:35:35.775Z,89.93
2017-12-19T23:38:02.065Z,89.65
2017-12-19T23:40:28.313Z,89.39
2017-12-19T23:42:54.578Z,89.46
2017-12-19T23:45:20.756Z,89.50
2017-12-19T23:47:47.052Z,89.88
2017-12-19T23:50:13.199Z,90.20
2017-12-19T23:52:39.774Z,90.17
2017-12-19T23:55:06.202Z,90.15
2017-12-19T23:57:32.366Z,90.32
2017-12-19T23:59:58.524Z,90.16
